sensor_id;sensor_type;location;lat;lon;timestamp;P1;durP1;ratioP1;P2;durP2;ratioP2
60504;SDS011;46348;0.000;0.000;2024-02-15T00:00:38;8.25;;;6.72;;
60504;SDS011;46348;0.000;0.000;2024-02-15T00:03:05;7.63;;;6.25;;
60504;SDS011;46348;0.000;0.000;2024-02-15T00:05:39;7.15;;;6.22;;
60504;SDS011;46348;0.000;0.000;2024-02-15T00:08:06;9.65;;;6.75;;
60504;SDS011;46348;0.000;0.000;2024-02-15T00:10:35;8.18;;;6.45;;
60504;SDS011;46348;0.000;0.000;2024-02-15T00:13:03;8.48;;;6.20;;
60504;SDS011;46348;0.000;0.000;2024-02-15T00:15:32;6.45;;;5.22;;
60504;SDS011;46348;0.000;0.000;2024-02-15T00:18:02;6.68;;;5.45;;
60504;SDS011;46348;0.000;0.000;2024-02-15T00:20:30;7.57;;;5.68;;
60504;SDS011;46348;0.000;0.000;2024-02-15T00:22:57;8.43;;;6.72;;
60504;SDS011;46348;0.000;0.000;2024-02-15T00:25:24;7.57;;;6.03;;
60504;SDS011;46348;0.000;0.000;2024-02-15T00:27:52;7.57;;;6.35;;
60504;SDS011;46348;0.000;0.000;2024-02-15T00:30:19;10.25;;;7.40;;
60504;SDS011;46348;0.000;0.000;2024-02-15T00:32:46;7.95;;;6.40;;
60504;SDS011;46348;0.000;0.000;2024-02-15T00:35:13;8.75;;;5.82;;
60504;SDS011;46348;0.000;0.000;2024-02-15T00:37:40;7.93;;;6.40;;
60504;SDS011;46348;0.000;0.000;2024-02-15T00:40:08;9.82;;;6.60;;
60504;SDS011;46348;0.000;0.000;2024-02-15T00:42:35;9.32;;;6.65;;
60504;SDS011;46348;0.000;0.000;2024-02-15T00:45:03;11.10;;;7.50;;
60504;SDS011;46348;0.000;0.000;2024-02-15T00:47:31;8.35;;;6.20;;
60504;SDS011;46348;0.000;0.000;2024-02-15T00:49:58;8.85;;;6.93;;
60504;SDS011;46348;0.000;0.000;2024-02-15T00:52:26;9.95;;;6.50;;
60504;SDS011;46348;0.000;0.000;2024-02-15T00:54:55;8.60;;;6.78;;
60504;SDS011;46348;0.000;0.000;2024-02-15T00:57:22;8.80;;;5.93;;
60504;SDS011;46348;0.000;0.000;2024-02-15T00:59:49;10.40;;;6.55;;
60504;SDS011;46348;0.000;0.000;2024-02-15T01:02:18;10.05;;;6.53;;
60504;SDS011;46348;0.000;0.000;2024-02-15T01:04:45;10.45;;;6.53;;
60504;SDS011;46348;0.000;0.000;2024-02-15T01:07:12;9.15;;;6.60;;
60504;SDS011;46348;0.000;0.000;2024-02-15T01:09:39;10.27;;;6.78;;
60504;SDS011;46348;0.000;0.000;2024-02-15T01:12:06;10.68;;;6.47;;
60504;SDS011;46348;0.000;0.000;2024-02-15T01:14:36;9.32;;;6.45;;
60504;SDS011;46348;0.000;0.000;2024-02-15T01:17:03;7.13;;;5.57;;
60504;SDS011;46348;0.000;0.000;2024-02-15T01:19:30;9.95;;;6.40;;
60504;SDS011;46348;0.000;0.000;2024-02-15T01:21:58;8.65;;;5.90;;
60504;SDS011;46348;0.000;0.000;2024-02-15T01:24:25;10.80;;;6.63;;
60504;SDS011;46348;0.000;0.000;2024-02-15T01:26:52;8.82;;;5.85;;
60504;SDS011;46348;0.000;0.000;2024-02-15T01:29:20;9.65;;;5.90;;
60504;SDS011;46348;0.000;0.000;2024-02-15T01:31:47;10.85;;;5.70;;
60504;SDS011;46348;0.000;0.000;2024-02-15T01:34:14;7.93;;;5.47;;
60504;SDS011;46348;0.000;0.000;2024-02-15T01:36:41;7.70;;;5.15;;
60504;SDS011;46348;0.000;0.000;2024-02-15T01:39:08;9.30;;;5.60;;
60504;SDS011;46348;0.000;0.000;2024-02-15T01:41:36;7.15;;;5.43;;
60504;SDS011;46348;0.000;0.000;2024-02-15T01:44:04;7.50;;;5.10;;
60504;SDS011;46348;0.000;0.000;2024-02-15T01:46:32;7.85;;;5.32;;
60504;SDS011;46348;0.000;0.000;2024-02-15T01:48:59;8.15;;;5.20;;
60504;SDS011;46348;0.000;0.000;2024-02-15T01:51:26;8.43;;;5.90;;
60504;SDS011;46348;0.000;0.000;2024-02-15T01:53:53;7.00;;;5.15;;
60504;SDS011;46348;0.000;0.000;2024-02-15T01:56:23;8.95;;;5.43;;
60504;SDS011;46348;0.000;0.000;2024-02-15T01:58:51;9.15;;;5.65;;
60504;SDS011;46348;0.000;0.000;2024-02-15T02:01:19;6.80;;;4.90;;
60504;SDS011;46348;0.000;0.000;2024-02-15T02:03:47;8.65;;;5.30;;
60504;SDS011;46348;0.000;0.000;2024-02-15T02:06:14;6.50;;;4.85;;
60504;SDS011;46348;0.000;0.000;2024-02-15T02:08:41;8.15;;;4.88;;
60504;SDS011;46348;0.000;0.000;2024-02-15T02:11:08;7.35;;;4.85;;
60504;SDS011;46348;0.000;0.000;2024-02-15T02:13:35;6.63;;;4.78;;
60504;SDS011;46348;0.000;0.000;2024-02-15T02:16:03;9.07;;;5.10;;
60504;SDS011;46348;0.000;0.000;2024-02-15T02:18:30;8.02;;;4.53;;
60504;SDS011;46348;0.000;0.000;2024-02-15T02:20:57;6.72;;;4.45;;
60504;SDS011;46348;0.000;0.000;2024-02-15T02:23:25;7.22;;;4.30;;
60504;SDS011;46348;0.000;0.000;2024-02-15T02:25:53;7.28;;;4.90;;
60504;SDS011;46348;0.000;0.000;2024-02-15T02:28:21;8.05;;;4.50;;
60504;SDS011;46348;0.000;0.000;2024-02-15T02:30:48;8.57;;;4.57;;
60504;SDS011;46348;0.000;0.000;2024-02-15T02:33:15;6.70;;;4.32;;
60504;SDS011;46348;0.000;0.000;2024-02-15T02:35:46;8.13;;;4.47;;
60504;SDS011;46348;0.000;0.000;2024-02-15T02:38:14;7.65;;;4.45;;
60504;SDS011;46348;0.000;0.000;2024-02-15T02:40:41;8.32;;;4.82;;
60504;SDS011;46348;0.000;0.000;2024-02-15T02:43:08;7.45;;;4.63;;
60504;SDS011;46348;0.000;0.000;2024-02-15T02:45:35;7.63;;;4.88;;
60504;SDS011;46348;0.000;0.000;2024-02-15T02:48:02;6.47;;;4.30;;
60504;SDS011;46348;0.000;0.000;2024-02-15T02:50:30;6.43;;;4.10;;
60504;SDS011;46348;0.000;0.000;2024-02-15T02:52:57;7.88;;;4.32;;
60504;SDS011;46348;0.000;0.000;2024-02-15T02:55:24;7.95;;;4.25;;
60504;SDS011;46348;0.000;0.000;2024-02-15T02:57:53;6.00;;;3.95;;
60504;SDS011;46348;0.000;0.000;2024-02-15T03:00:21;7.35;;;4.45;;
60504;SDS011;46348;0.000;0.000;2024-02-15T03:02:48;8.07;;;4.60;;
60504;SDS011;46348;0.000;0.000;2024-02-15T03:05:15;8.20;;;4.70;;
60504;SDS011;46348;0.000;0.000;2024-02-15T03:07:42;8.10;;;4.43;;
60504;SDS011;46348;0.000;0.000;2024-02-15T03:10:10;6.28;;;4.15;;
60504;SDS011;46348;0.000;0.000;2024-02-15T03:12:39;7.25;;;4.00;;
60504;SDS011;46348;0.000;0.000;2024-02-15T03:15:12;7.38;;;4.28;;
60504;SDS011;46348;0.000;0.000;2024-02-15T03:17:39;7.38;;;4.28;;
60504;SDS011;46348;0.000;0.000;2024-02-15T03:20:08;7.30;;;4.05;;
60504;SDS011;46348;0.000;0.000;2024-02-15T03:22:53;7.03;;;4.05;;
60504;SDS011;46348;0.000;0.000;2024-02-15T03:25:20;5.55;;;3.60;;
60504;SDS011;46348;0.000;0.000;2024-02-15T03:27:50;6.05;;;3.90;;
60504;SDS011;46348;0.000;0.000;2024-02-15T03:30:21;6.10;;;3.92;;
60504;SDS011;46348;0.000;0.000;2024-02-15T03:32:48;7.53;;;4.05;;
60504;SDS011;46348;0.000;0.000;2024-02-15T03:35:20;7.63;;;4.25;;
60504;SDS011;46348;0.000;0.000;2024-02-15T03:37:48;8.82;;;4.15;;
60504;SDS011;46348;0.000;0.000;2024-02-15T03:40:19;7.53;;;4.28;;
60504;SDS011;46348;0.000;0.000;2024-02-15T03:42:46;6.53;;;4.05;;
60504;SDS011;46348;0.000;0.000;2024-02-15T03:45:13;7.28;;;4.25;;
60504;SDS011;46348;0.000;0.000;2024-02-15T03:47:40;8.18;;;4.15;;
60504;SDS011;46348;0.000;0.000;2024-02-15T03:50:11;8.02;;;4.22;;
60504;SDS011;46348;0.000;0.000;2024-02-15T03:52:40;8.93;;;4.40;;
60504;SDS011;46348;0.000;0.000;2024-02-15T03:55:07;7.95;;;4.57;;
60504;SDS011;46348;0.000;0.000;2024-02-15T03:57:35;7.95;;;4.40;;
60504;SDS011;46348;0.000;0.000;2024-02-15T04:00:07;7.05;;;4.28;;
60504;SDS011;46348;0.000;0.000;2024-02-15T04:02:36;9.73;;;4.72;;
60504;SDS011;46348;0.000;0.000;2024-02-15T04:05:06;10.10;;;4.40;;
60504;SDS011;46348;0.000;0.000;2024-02-15T04:07:35;8.90;;;4.47;;
60504;SDS011;46348;0.000;0.000;2024-02-15T04:10:03;8.50;;;3.88;;
60504;SDS011;46348;0.000;0.000;2024-02-15T04:12:30;8.45;;;4.65;;
60504;SDS011;46348;0.000;0.000;2024-02-15T04:14:57;9.73;;;4.45;;
60504;SDS011;46348;0.000;0.000;2024-02-15T04:17:31;10.00;;;4.40;;
60504;SDS011;46348;0.000;0.000;2024-02-15T04:20:00;11.55;;;4.93;;
60504;SDS011;46348;0.000;0.000;2024-02-15T04:22:30;9.90;;;4.30;;
60504;SDS011;46348;0.000;0.000;2024-02-15T04:25:06;12.35;;;4.70;;
60504;SDS011;46348;0.000;0.000;2024-02-15T04:27:35;9.75;;;3.95;;
60504;SDS011;46348;0.000;0.000;2024-02-15T04:30:02;7.85;;;4.03;;
60504;SDS011;46348;0.000;0.000;2024-02-15T04:32:30;7.95;;;4.30;;
60504;SDS011;46348;0.000;0.000;2024-02-15T04:35:00;7.60;;;4.32;;
60504;SDS011;46348;0.000;0.000;2024-02-15T04:37:27;11.52;;;4.63;;
60504;SDS011;46348;0.000;0.000;2024-02-15T04:39:55;9.73;;;4.63;;
60504;SDS011;46348;0.000;0.000;2024-02-15T04:42:23;8.93;;;4.22;;
60504;SDS011;46348;0.000;0.000;2024-02-15T04:44:52;8.68;;;4.65;;
60504;SDS011;46348;0.000;0.000;2024-02-15T04:47:20;8.27;;;3.97;;
60504;SDS011;46348;0.000;0.000;2024-02-15T04:49:47;8.05;;;4.25;;
60504;SDS011;46348;0.000;0.000;2024-02-15T04:52:14;8.57;;;4.65;;
60504;SDS011;46348;0.000;0.000;2024-02-15T04:54:43;9.60;;;4.53;;
60504;SDS011;46348;0.000;0.000;2024-02-15T04:57:11;6.55;;;4.18;;
60504;SDS011;46348;0.000;0.000;2024-02-15T04:59:38;7.18;;;4.50;;
60504;SDS011;46348;0.000;0.000;2024-02-15T05:02:05;6.57;;;4.00;;
60504;SDS011;46348;0.000;0.000;2024-02-15T05:04:33;7.00;;;4.60;;
60504;SDS011;46348;0.000;0.000;2024-02-15T05:07:02;8.10;;;4.55;;
60504;SDS011;46348;0.000;0.000;2024-02-15T05:09:29;6.95;;;4.63;;
60504;SDS011;46348;0.000;0.000;2024-02-15T05:11:59;7.18;;;4.25;;
60504;SDS011;46348;0.000;0.000;2024-02-15T05:14:27;7.50;;;4.47;;
60504;SDS011;46348;0.000;0.000;2024-02-15T05:16:55;7.40;;;4.40;;
60504;SDS011;46348;0.000;0.000;2024-02-15T05:19:22;8.13;;;5.00;;
60504;SDS011;46348;0.000;0.000;2024-02-15T05:21:49;8.38;;;4.72;;
60504;SDS011;46348;0.000;0.000;2024-02-15T05:24:16;7.15;;;3.75;;
60504;SDS011;46348;0.000;0.000;2024-02-15T05:26:45;5.57;;;2.92;;
60504;SDS011;46348;0.000;0.000;2024-02-15T05:29:16;5.13;;;3.00;;
60504;SDS011;46348;0.000;0.000;2024-02-15T05:31:43;5.45;;;2.83;;
60504;SDS011;46348;0.000;0.000;2024-02-15T05:34:11;4.20;;;2.63;;
60504;SDS011;46348;0.000;0.000;2024-02-15T05:36:38;4.88;;;2.72;;
60504;SDS011;46348;0.000;0.000;2024-02-15T05:39:05;6.10;;;2.67;;
60504;SDS011;46348;0.000;0.000;2024-02-15T05:41:33;5.05;;;2.67;;
60504;SDS011;46348;0.000;0.000;2024-02-15T05:44:00;5.43;;;2.97;;
60504;SDS011;46348;0.000;0.000;2024-02-15T05:46:27;5.22;;;2.85;;
60504;SDS011;46348;0.000;0.000;2024-02-15T05:48:55;6.13;;;3.00;;
60504;SDS011;46348;0.000;0.000;2024-02-15T05:51:22;6.20;;;2.70;;
60504;SDS011;46348;0.000;0.000;2024-02-15T05:53:49;4.85;;;2.80;;
60504;SDS011;46348;0.000;0.000;2024-02-15T05:56:17;6.43;;;2.60;;
60504;SDS011;46348;0.000;0.000;2024-02-15T05:58:44;4.93;;;2.55;;
60504;SDS011;46348;0.000;0.000;2024-02-15T06:01:11;4.85;;;2.50;;
60504;SDS011;46348;0.000;0.000;2024-02-15T06:03:39;3.70;;;2.17;;
60504;SDS011;46348;0.000;0.000;2024-02-15T06:06:07;3.58;;;2.40;;
60504;SDS011;46348;0.000;0.000;2024-02-15T06:08:35;3.83;;;2.33;;
60504;SDS011;46348;0.000;0.000;2024-02-15T06:11:02;4.93;;;2.30;;
60504;SDS011;46348;0.000;0.000;2024-02-15T06:13:31;4.68;;;1.98;;
60504;SDS011;46348;0.000;0.000;2024-02-15T06:15:58;3.42;;;2.17;;
60504;SDS011;46348;0.000;0.000;2024-02-15T06:18:26;4.15;;;1.90;;
60504;SDS011;46348;0.000;0.000;2024-02-15T06:21:00;4.68;;;2.10;;
60504;SDS011;46348;0.000;0.000;2024-02-15T06:23:28;3.65;;;2.15;;
60504;SDS011;46348;0.000;0.000;2024-02-15T06:25:55;5.72;;;2.03;;
60504;SDS011;46348;0.000;0.000;2024-02-15T06:28:24;4.18;;;2.47;;
60504;SDS011;46348;0.000;0.000;2024-02-15T06:31:10;3.33;;;1.88;;
60504;SDS011;46348;0.000;0.000;2024-02-15T06:33:56;3.85;;;2.22;;
60504;SDS011;46348;0.000;0.000;2024-02-15T06:36:54;4.18;;;2.20;;
60504;SDS011;46348;0.000;0.000;2024-02-15T06:39:40;3.75;;;1.90;;
60504;SDS011;46348;0.000;0.000;2024-02-15T06:42:08;5.88;;;2.13;;
60504;SDS011;46348;0.000;0.000;2024-02-15T06:44:35;4.65;;;2.08;;
60504;SDS011;46348;0.000;0.000;2024-02-15T06:47:02;4.57;;;2.03;;
60504;SDS011;46348;0.000;0.000;2024-02-15T06:49:29;3.95;;;2.03;;
60504;SDS011;46348;0.000;0.000;2024-02-15T06:51:57;3.85;;;2.10;;
60504;SDS011;46348;0.000;0.000;2024-02-15T06:54:25;3.42;;;2.20;;
60504;SDS011;46348;0.000;0.000;2024-02-15T06:56:52;4.68;;;2.00;;
60504;SDS011;46348;0.000;0.000;2024-02-15T06:59:20;3.75;;;2.00;;
60504;SDS011;46348;0.000;0.000;2024-02-15T07:01:51;3.80;;;2.00;;
60504;SDS011;46348;0.000;0.000;2024-02-15T07:04:18;3.90;;;2.30;;
60504;SDS011;46348;0.000;0.000;2024-02-15T07:06:46;3.80;;;2.00;;
60504;SDS011;46348;0.000;0.000;2024-02-15T07:09:15;3.45;;;2.15;;
60504;SDS011;46348;0.000;0.000;2024-02-15T07:11:53;2.67;;;2.13;;
60504;SDS011;46348;0.000;0.000;2024-02-15T07:14:21;3.05;;;1.90;;
60504;SDS011;46348;0.000;0.000;2024-02-15T07:16:48;4.40;;;2.10;;
60504;SDS011;46348;0.000;0.000;2024-02-15T07:19:18;3.72;;;2.22;;
60504;SDS011;46348;0.000;0.000;2024-02-15T07:21:45;3.88;;;2.15;;
60504;SDS011;46348;0.000;0.000;2024-02-15T07:24:12;3.17;;;2.13;;
60504;SDS011;46348;0.000;0.000;2024-02-15T07:26:40;5.03;;;2.20;;
60504;SDS011;46348;0.000;0.000;2024-02-15T07:29:07;3.05;;;1.85;;
60504;SDS011;46348;0.000;0.000;2024-02-15T07:31:36;2.90;;;2.00;;
60504;SDS011;46348;0.000;0.000;2024-02-15T07:34:03;3.08;;;1.75;;
60504;SDS011;46348;0.000;0.000;2024-02-15T07:36:32;5.32;;;2.10;;
60504;SDS011;46348;0.000;0.000;2024-02-15T07:38:59;3.72;;;1.92;;
60504;SDS011;46348;0.000;0.000;2024-02-15T07:41:26;3.60;;;2.22;;
60504;SDS011;46348;0.000;0.000;2024-02-15T07:43:54;4.38;;;2.03;;
60504;SDS011;46348;0.000;0.000;2024-02-15T07:46:21;4.70;;;2.00;;
60504;SDS011;46348;0.000;0.000;2024-02-15T07:48:50;3.13;;;1.88;;
60504;SDS011;46348;0.000;0.000;2024-02-15T07:51:18;6.35;;;2.15;;
60504;SDS011;46348;0.000;0.000;2024-02-15T07:53:45;3.35;;;1.88;;
60504;SDS011;46348;0.000;0.000;2024-02-15T07:56:13;2.72;;;2.08;;
60504;SDS011;46348;0.000;0.000;2024-02-15T07:58:41;3.78;;;1.90;;
60504;SDS011;46348;0.000;0.000;2024-02-15T08:01:12;3.25;;;1.90;;
60504;SDS011;46348;0.000;0.000;2024-02-15T08:03:40;3.03;;;1.67;;
60504;SDS011;46348;0.000;0.000;2024-02-15T08:06:12;2.40;;;1.60;;
60504;SDS011;46348;0.000;0.000;2024-02-15T08:08:39;3.55;;;2.20;;
60504;SDS011;46348;0.000;0.000;2024-02-15T08:11:07;2.83;;;1.90;;
60504;SDS011;46348;0.000;0.000;2024-02-15T08:13:43;4.18;;;2.17;;
60504;SDS011;46348;0.000;0.000;2024-02-15T08:16:10;4.72;;;2.13;;
60504;SDS011;46348;0.000;0.000;2024-02-15T08:18:38;3.20;;;2.17;;
60504;SDS011;46348;0.000;0.000;2024-02-15T08:21:05;4.80;;;2.00;;
60504;SDS011;46348;0.000;0.000;2024-02-15T08:23:33;3.22;;;1.80;;
60504;SDS011;46348;0.000;0.000;2024-02-15T08:26:00;2.55;;;1.90;;
60504;SDS011;46348;0.000;0.000;2024-02-15T08:28:27;2.55;;;1.80;;
60504;SDS011;46348;0.000;0.000;2024-02-15T08:30:55;5.45;;;1.90;;
60504;SDS011;46348;0.000;0.000;2024-02-15T08:33:23;2.42;;;1.95;;
60504;SDS011;46348;0.000;0.000;2024-02-15T08:35:54;2.88;;;2.08;;
60504;SDS011;46348;0.000;0.000;2024-02-15T08:38:22;2.45;;;1.95;;
60504;SDS011;46348;0.000;0.000;2024-02-15T08:40:49;2.70;;;1.90;;
60504;SDS011;46348;0.000;0.000;2024-02-15T08:43:16;3.60;;;1.85;;
60504;SDS011;46348;0.000;0.000;2024-02-15T08:45:43;1.88;;;1.65;;
60504;SDS011;46348;0.000;0.000;2024-02-15T08:48:11;3.17;;;2.05;;
60504;SDS011;46348;0.000;0.000;2024-02-15T08:50:38;2.55;;;1.85;;
60504;SDS011;46348;0.000;0.000;2024-02-15T08:53:07;2.85;;;1.58;;
60504;SDS011;46348;0.000;0.000;2024-02-15T08:55:34;2.30;;;1.85;;
60504;SDS011;46348;0.000;0.000;2024-02-15T08:58:01;2.67;;;1.80;;
60504;SDS011;46348;0.000;0.000;2024-02-15T09:00:30;2.78;;;2.15;;
60504;SDS011;46348;0.000;0.000;2024-02-15T09:02:57;3.78;;;2.05;;
60504;SDS011;46348;0.000;0.000;2024-02-15T09:05:24;2.10;;;1.85;;
60504;SDS011;46348;0.000;0.000;2024-02-15T09:07:51;2.63;;;2.05;;
60504;SDS011;46348;0.000;0.000;2024-02-15T09:10:18;3.22;;;1.90;;
60504;SDS011;46348;0.000;0.000;2024-02-15T09:12:48;3.47;;;1.90;;
60504;SDS011;46348;0.000;0.000;2024-02-15T09:15:16;2.88;;;1.88;;
60504;SDS011;46348;0.000;0.000;2024-02-15T09:17:43;2.33;;;1.98;;
60504;SDS011;46348;0.000;0.000;2024-02-15T09:20:12;2.13;;;1.55;;
60504;SDS011;46348;0.000;0.000;2024-02-15T09:22:47;2.80;;;1.88;;
60504;SDS011;46348;0.000;0.000;2024-02-15T09:25:16;3.70;;;1.80;;
60504;SDS011;46348;0.000;0.000;2024-02-15T09:27:44;2.38;;;1.80;;
60504;SDS011;46348;0.000;0.000;2024-02-15T09:30:12;3.53;;;1.60;;
60504;SDS011;46348;0.000;0.000;2024-02-15T09:32:39;3.17;;;1.80;;
60504;SDS011;46348;0.000;0.000;2024-02-15T09:35:06;2.65;;;1.80;;
60504;SDS011;46348;0.000;0.000;2024-02-15T09:37:37;3.00;;;1.80;;
60504;SDS011;46348;0.000;0.000;2024-02-15T09:40:11;4.15;;;1.65;;
60504;SDS011;46348;0.000;0.000;2024-02-15T09:42:38;2.08;;;1.63;;
60504;SDS011;46348;0.000;0.000;2024-02-15T09:45:13;3.35;;;1.98;;
60504;SDS011;46348;0.000;0.000;2024-02-15T09:47:44;3.47;;;1.70;;
60504;SDS011;46348;0.000;0.000;2024-02-15T09:50:15;2.55;;;1.92;;
60504;SDS011;46348;0.000;0.000;2024-02-15T09:52:49;2.72;;;1.70;;
60504;SDS011;46348;0.000;0.000;2024-02-15T09:55:24;3.30;;;2.00;;
60504;SDS011;46348;0.000;0.000;2024-02-15T09:57:52;3.35;;;1.63;;
60504;SDS011;46348;0.000;0.000;2024-02-15T10:00:19;2.78;;;1.77;;
60504;SDS011;46348;0.000;0.000;2024-02-15T10:02:47;3.20;;;1.80;;
60504;SDS011;46348;0.000;0.000;2024-02-15T10:05:23;4.70;;;1.75;;
60504;SDS011;46348;0.000;0.000;2024-02-15T10:07:50;3.95;;;1.50;;
60504;SDS011;46348;0.000;0.000;2024-02-15T10:12:46;3.00;;;1.60;;
60504;SDS011;46348;0.000;0.000;2024-02-15T10:18:02;2.15;;;1.40;;
60504;SDS011;46348;0.000;0.000;2024-02-15T10:20:29;2.38;;;1.70;;
60504;SDS011;46348;0.000;0.000;2024-02-15T10:25:28;2.15;;;1.55;;
60504;SDS011;46348;0.000;0.000;2024-02-15T10:28:01;2.85;;;1.70;;
60504;SDS011;46348;0.000;0.000;2024-02-15T10:30:38;3.30;;;1.70;;
60504;SDS011;46348;0.000;0.000;2024-02-15T10:33:06;3.83;;;1.60;;
60504;SDS011;46348;0.000;0.000;2024-02-15T10:35:33;3.42;;;1.70;;
60504;SDS011;46348;0.000;0.000;2024-02-15T10:38:10;2.90;;;1.42;;
60504;SDS011;46348;0.000;0.000;2024-02-15T10:40:40;3.45;;;1.60;;
60504;SDS011;46348;0.000;0.000;2024-02-15T10:43:11;2.15;;;1.75;;
60504;SDS011;46348;0.000;0.000;2024-02-15T10:45:39;1.75;;;1.50;;
60504;SDS011;46348;0.000;0.000;2024-02-15T10:48:11;2.97;;;1.50;;
60504;SDS011;46348;0.000;0.000;2024-02-15T10:50:39;3.22;;;1.40;;
60504;SDS011;46348;0.000;0.000;2024-02-15T10:53:18;4.25;;;1.58;;
60504;SDS011;46348;0.000;0.000;2024-02-15T10:58:19;2.22;;;1.33;;
60504;SDS011;46348;0.000;0.000;2024-02-15T11:00:52;2.10;;;1.38;;
60504;SDS011;46348;0.000;0.000;2024-02-15T11:03:23;3.58;;;1.45;;
60504;SDS011;46348;0.000;0.000;2024-02-15T11:05:52;2.42;;;1.77;;
60504;SDS011;46348;0.000;0.000;2024-02-15T11:08:21;2.20;;;1.50;;
60504;SDS011;46348;0.000;0.000;2024-02-15T11:10:48;3.92;;;1.50;;
60504;SDS011;46348;0.000;0.000;2024-02-15T11:13:15;1.30;;;1.20;;
60504;SDS011;46348;0.000;0.000;2024-02-15T11:15:43;1.67;;;1.40;;
60504;SDS011;46348;0.000;0.000;2024-02-15T11:21:07;2.47;;;1.40;;
60504;SDS011;46348;0.000;0.000;2024-02-15T11:23:34;1.85;;;1.25;;
60504;SDS011;46348;0.000;0.000;2024-02-15T11:26:01;3.05;;;1.20;;
60504;SDS011;46348;0.000;0.000;2024-02-15T11:30:56;2.05;;;1.40;;
60504;SDS011;46348;0.000;0.000;2024-02-15T11:33:30;3.45;;;1.48;;
60504;SDS011;46348;0.000;0.000;2024-02-15T11:38:38;2.45;;;1.70;;
60504;SDS011;46348;0.000;0.000;2024-02-15T11:41:09;2.58;;;1.48;;
60504;SDS011;46348;0.000;0.000;2024-02-15T11:46:14;2.13;;;1.48;;
60504;SDS011;46348;0.000;0.000;2024-02-15T11:48:42;1.83;;;1.20;;
60504;SDS011;46348;0.000;0.000;2024-02-15T11:51:09;5.13;;;1.25;;
60504;SDS011;46348;0.000;0.000;2024-02-15T11:53:39;2.55;;;1.35;;
60504;SDS011;46348;0.000;0.000;2024-02-15T11:56:06;1.75;;;1.30;;
60504;SDS011;46348;0.000;0.000;2024-02-15T11:58:36;2.33;;;1.40;;
60504;SDS011;46348;0.000;0.000;2024-02-15T12:01:18;3.50;;;1.30;;
60504;SDS011;46348;0.000;0.000;2024-02-15T12:04:04;2.20;;;1.38;;
60504;SDS011;46348;0.000;0.000;2024-02-15T12:06:50;3.17;;;1.45;;
60504;SDS011;46348;0.000;0.000;2024-02-15T12:09:41;4.18;;;1.70;;
60504;SDS011;46348;0.000;0.000;2024-02-15T12:12:27;2.35;;;1.30;;
60504;SDS011;46348;0.000;0.000;2024-02-15T12:15:13;3.38;;;1.40;;
60504;SDS011;46348;0.000;0.000;2024-02-15T12:21:13;1.27;;;1.17;;
60504;SDS011;46348;0.000;0.000;2024-02-15T12:23:41;1.92;;;1.30;;
60504;SDS011;46348;0.000;0.000;2024-02-15T12:26:09;3.05;;;1.20;;
60504;SDS011;46348;0.000;0.000;2024-02-15T12:28:36;2.05;;;1.10;;
60504;SDS011;46348;0.000;0.000;2024-02-15T12:31:04;2.70;;;1.33;;
60504;SDS011;46348;0.000;0.000;2024-02-15T12:33:33;4.07;;;1.52;;
60504;SDS011;46348;0.000;0.000;2024-02-15T12:36:07;3.53;;;1.40;;
60504;SDS011;46348;0.000;0.000;2024-02-15T12:38:34;1.92;;;1.30;;
60504;SDS011;46348;0.000;0.000;2024-02-15T12:41:20;4.40;;;1.60;;
60504;SDS011;46348;0.000;0.000;2024-02-15T12:43:52;3.78;;;1.35;;
60504;SDS011;46348;0.000;0.000;2024-02-15T12:46:19;1.70;;;1.20;;
60504;SDS011;46348;0.000;0.000;2024-02-15T12:48:46;2.90;;;1.35;;
60504;SDS011;46348;0.000;0.000;2024-02-15T12:51:18;1.85;;;1.05;;
60504;SDS011;46348;0.000;0.000;2024-02-15T12:53:48;3.67;;;1.13;;
60504;SDS011;46348;0.000;0.000;2024-02-15T12:56:21;2.72;;;1.45;;
60504;SDS011;46348;0.000;0.000;2024-02-15T12:58:50;3.25;;;1.30;;
60504;SDS011;46348;0.000;0.000;2024-02-15T13:01:17;2.53;;;1.25;;
60504;SDS011;46348;0.000;0.000;2024-02-15T13:03:44;2.17;;;1.23;;
60504;SDS011;46348;0.000;0.000;2024-02-15T13:06:11;2.85;;;1.45;;
60504;SDS011;46348;0.000;0.000;2024-02-15T13:08:38;2.42;;;1.40;;
60504;SDS011;46348;0.000;0.000;2024-02-15T13:11:05;2.67;;;1.52;;
60504;SDS011;46348;0.000;0.000;2024-02-15T13:13:34;2.70;;;1.35;;
60504;SDS011;46348;0.000;0.000;2024-02-15T13:16:03;2.28;;;1.45;;
60504;SDS011;46348;0.000;0.000;2024-02-15T13:18:32;1.63;;;1.20;;
60504;SDS011;46348;0.000;0.000;2024-02-15T13:20:59;2.15;;;1.33;;
60504;SDS011;46348;0.000;0.000;2024-02-15T13:23:26;1.83;;;1.38;;
60504;SDS011;46348;0.000;0.000;2024-02-15T13:25:53;1.48;;;1.20;;
60504;SDS011;46348;0.000;0.000;2024-02-15T13:28:22;1.60;;;1.50;;
60504;SDS011;46348;0.000;0.000;2024-02-15T13:30:50;4.05;;;1.48;;
60504;SDS011;46348;0.000;0.000;2024-02-15T13:33:20;4.35;;;1.48;;
60504;SDS011;46348;0.000;0.000;2024-02-15T13:35:47;2.25;;;1.17;;
60504;SDS011;46348;0.000;0.000;2024-02-15T13:38:16;4.10;;;1.50;;
60504;SDS011;46348;0.000;0.000;2024-02-15T13:40:48;1.52;;;1.20;;
60504;SDS011;46348;0.000;0.000;2024-02-15T13:43:16;1.35;;;1.20;;
60504;SDS011;46348;0.000;0.000;2024-02-15T13:45:44;2.50;;;1.33;;
60504;SDS011;46348;0.000;0.000;2024-02-15T13:48:11;1.42;;;1.10;;
60504;SDS011;46348;0.000;0.000;2024-02-15T13:50:42;2.75;;;1.42;;
60504;SDS011;46348;0.000;0.000;2024-02-15T13:53:10;4.25;;;1.30;;
60504;SDS011;46348;0.000;0.000;2024-02-15T13:55:39;3.05;;;1.33;;
60504;SDS011;46348;0.000;0.000;2024-02-15T13:58:06;1.65;;;1.40;;
60504;SDS011;46348;0.000;0.000;2024-02-15T14:00:35;3.83;;;1.30;;
60504;SDS011;46348;0.000;0.000;2024-02-15T14:03:03;2.47;;;1.60;;
60504;SDS011;46348;0.000;0.000;2024-02-15T14:05:32;2.10;;;1.50;;
60504;SDS011;46348;0.000;0.000;2024-02-15T14:07:59;3.75;;;1.48;;
60504;SDS011;46348;0.000;0.000;2024-02-15T14:10:30;2.38;;;1.67;;
60504;SDS011;46348;0.000;0.000;2024-02-15T14:12:57;2.47;;;1.48;;
60504;SDS011;46348;0.000;0.000;2024-02-15T14:15:25;2.28;;;1.20;;
60504;SDS011;46348;0.000;0.000;2024-02-15T14:17:52;1.98;;;1.50;;
60504;SDS011;46348;0.000;0.000;2024-02-15T14:20:21;1.90;;;1.45;;
60504;SDS011;46348;0.000;0.000;2024-02-15T14:22:50;2.53;;;1.40;;
60504;SDS011;46348;0.000;0.000;2024-02-15T14:25:26;2.97;;;1.27;;
60504;SDS011;46348;0.000;0.000;2024-02-15T14:27:53;2.03;;;1.45;;
60504;SDS011;46348;0.000;0.000;2024-02-15T14:30:21;5.00;;;1.50;;
60504;SDS011;46348;0.000;0.000;2024-02-15T14:33:07;3.30;;;1.60;;
60504;SDS011;46348;0.000;0.000;2024-02-15T14:35:38;2.03;;;1.30;;
60504;SDS011;46348;0.000;0.000;2024-02-15T14:38:08;2.05;;;1.35;;
60504;SDS011;46348;0.000;0.000;2024-02-15T14:40:40;2.30;;;1.33;;
60504;SDS011;46348;0.000;0.000;2024-02-15T14:43:08;1.95;;;1.33;;
60504;SDS011;46348;0.000;0.000;2024-02-15T14:45:39;3.45;;;1.33;;
60504;SDS011;46348;0.000;0.000;2024-02-15T14:48:09;1.80;;;1.20;;
60504;SDS011;46348;0.000;0.000;2024-02-15T14:50:37;2.53;;;1.42;;
60504;SDS011;46348;0.000;0.000;2024-02-15T14:53:04;2.22;;;1.65;;
60504;SDS011;46348;0.000;0.000;2024-02-15T14:55:34;3.28;;;1.50;;
60504;SDS011;46348;0.000;0.000;2024-02-15T14:58:01;4.32;;;1.65;;
60504;SDS011;46348;0.000;0.000;2024-02-15T15:00:28;1.48;;;1.33;;
60504;SDS011;46348;0.000;0.000;2024-02-15T15:02:56;3.22;;;1.67;;
60504;SDS011;46348;0.000;0.000;2024-02-15T15:05:23;2.20;;;1.50;;
60504;SDS011;46348;0.000;0.000;2024-02-15T15:08:09;2.08;;;1.60;;
60504;SDS011;46348;0.000;0.000;2024-02-15T15:10:55;3.33;;;1.50;;
60504;SDS011;46348;0.000;0.000;2024-02-15T15:13:57;2.28;;;1.50;;
60504;SDS011;46348;0.000;0.000;2024-02-15T15:16:24;4.10;;;1.50;;
60504;SDS011;46348;0.000;0.000;2024-02-15T15:18:51;2.72;;;1.52;;
60504;SDS011;46348;0.000;0.000;2024-02-15T15:21:19;2.45;;;1.60;;
60504;SDS011;46348;0.000;0.000;2024-02-15T15:23:48;2.70;;;1.50;;
60504;SDS011;46348;0.000;0.000;2024-02-15T15:26:19;3.90;;;1.55;;
60504;SDS011;46348;0.000;0.000;2024-02-15T15:28:46;2.60;;;1.50;;
60504;SDS011;46348;0.000;0.000;2024-02-15T15:31:14;3.55;;;1.65;;
60504;SDS011;46348;0.000;0.000;2024-02-15T15:33:41;4.53;;;1.80;;
60504;SDS011;46348;0.000;0.000;2024-02-15T15:36:17;2.35;;;1.60;;